Paradise, Louisiana
Current Conditions -  °F | °C
As of 4:53 AM on Sunday 26 Oct 2014 (Local Time) from KESF Reporting Station
Clear Clear  
Wind Chill: 52°   Ceiling: Unl
Heat Index: 52°   Visibility: 10mi
Dew Point: 52°   Wind: 3mph
Humidity: 100%   Direction: 250°WSW
Pressure: 30.04"   Gusts: NA
Location:  31.3398°N, 92.3739°W
Report Text: KESF 260953Z AUTO 25003KT 10SM CLR 11/11 A3004 RMK AO2 SLP173 T01110111
Loading
Personal Weather Stations






























Interactive Weather Map
Tropical Storm Tracking
New forecast layout! Learn more

10-Day Weather Forecast

Advertisements
Track Severe Weather on mobile